sensor_id;sensor_type;location;lat;lon;timestamp;temperature;humidity
75217;HTU21D;63800;51.972;5.682;2023-08-30T00:02:03;13.61;118.99
75217;HTU21D;63800;51.972;5.682;2023-08-30T00:04:29;13.68;118.99
75217;HTU21D;63800;51.972;5.682;2023-08-30T00:06:55;13.66;118.99
75217;HTU21D;63800;51.972;5.682;2023-08-30T00:09:20;13.81;118.99
75217;HTU21D;63800;51.972;5.682;2023-08-30T00:11:46;13.74;118.99
75217;HTU21D;63800;51.972;5.682;2023-08-30T00:14:11;13.71;118.99
75217;HTU21D;63800;51.972;5.682;2023-08-30T00:16:37;13.97;118.99
75217;HTU21D;63800;51.972;5.682;2023-08-30T00:19:03;13.80;118.99
75217;HTU21D;63800;51.972;5.682;2023-08-30T00:21:29;13.74;118.99
75217;HTU21D;63800;51.972;5.682;2023-08-30T00:23:55;13.63;118.99
75217;HTU21D;63800;51.972;5.682;2023-08-30T00:26:21;13.46;118.99
75217;HTU21D;63800;51.972;5.682;2023-08-30T00:28:46;13.49;118.99
75217;HTU21D;63800;51.972;5.682;2023-08-30T00:31:12;13.50;118.99
75217;HTU21D;63800;51.972;5.682;2023-08-30T00:33:37;13.38;118.99
75217;HTU21D;63800;51.972;5.682;2023-08-30T00:36:03;13.50;118.99
75217;HTU21D;63800;51.972;5.682;2023-08-30T00:38:29;13.53;118.99
75217;HTU21D;63800;51.972;5.682;2023-08-30T00:40:54;13.46;118.99
75217;HTU21D;63800;51.972;5.682;2023-08-30T00:43:20;13.68;118.99
75217;HTU21D;63800;51.972;5.682;2023-08-30T00:45:47;13.60;118.99
75217;HTU21D;63800;51.972;5.682;2023-08-30T00:48:12;13.38;118.99
75217;HTU21D;63800;51.972;5.682;2023-08-30T00:50:39;13.46;118.99
75217;HTU21D;63800;51.972;5.682;2023-08-30T00:53:05;13.20;118.99
75217;HTU21D;63800;51.972;5.682;2023-08-30T00:55:35;13.29;118.99
75217;HTU21D;63800;51.972;5.682;2023-08-30T00:58:01;13.23;118.99
75217;HTU21D;63800;51.972;5.682;2023-08-30T01:00:28;13.09;118.99
75217;HTU21D;63800;51.972;5.682;2023-08-30T01:02:55;13.15;118.99
75217;HTU21D;63800;51.972;5.682;2023-08-30T01:05:21;13.25;118.99
75217;HTU21D;63800;51.972;5.682;2023-08-30T01:07:46;13.29;118.99
75217;HTU21D;63800;51.972;5.682;2023-08-30T01:10:12;13.25;118.99
75217;HTU21D;63800;51.972;5.682;2023-08-30T01:12:41;13.21;118.99
75217;HTU21D;63800;51.972;5.682;2023-08-30T01:15:21;13.08;118.99
75217;HTU21D;63800;51.972;5.682;2023-08-30T01:17:48;13.09;118.99
75217;HTU21D;63800;51.972;5.682;2023-08-30T01:20:17;13.11;118.99
75217;HTU21D;63800;51.972;5.682;2023-08-30T01:23:34;13.00;118.99
75217;HTU21D;63800;51.972;5.682;2023-08-30T01:29:00;12.97;118.99
75217;HTU21D;63800;51.972;5.682;2023-08-30T01:31:27;13.10;118.99
75217;HTU21D;63800;51.972;5.682;2023-08-30T01:33:55;13.18;118.99
75217;HTU21D;63800;51.972;5.682;2023-08-30T01:36:22;13.15;118.99
75217;HTU21D;63800;51.972;5.682;2023-08-30T01:38:48;13.14;118.99
75217;HTU21D;63800;51.972;5.682;2023-08-30T01:41:14;13.25;118.99
75217;HTU21D;63800;51.972;5.682;2023-08-30T01:43:41;13.21;118.99
75217;HTU21D;63800;51.972;5.682;2023-08-30T01:46:08;13.19;118.99
75217;HTU21D;63800;51.972;5.682;2023-08-30T01:48:35;13.26;118.99
75217;HTU21D;63800;51.972;5.682;2023-08-30T01:51:01;13.26;118.99
75217;HTU21D;63800;51.972;5.682;2023-08-30T01:53:28;13.22;118.99
75217;HTU21D;63800;51.972;5.682;2023-08-30T01:55:54;13.36;118.99
75217;HTU21D;63800;51.972;5.682;2023-08-30T01:58:19;13.34;118.99
75217;HTU21D;63800;51.972;5.682;2023-08-30T02:00:45;13.49;118.99
75217;HTU21D;63800;51.972;5.682;2023-08-30T02:03:13;13.53;118.99
75217;HTU21D;63800;51.972;5.682;2023-08-30T02:06:11;13.44;118.99
75217;HTU21D;63800;51.972;5.682;2023-08-30T02:11:35;13.50;118.99
75217;HTU21D;63800;51.972;5.682;2023-08-30T02:14:04;13.48;118.99
75217;HTU21D;63800;51.972;5.682;2023-08-30T02:16:33;13.46;118.99
75217;HTU21D;63800;51.972;5.682;2023-08-30T02:18:59;13.44;118.99
75217;HTU21D;63800;51.972;5.682;2023-08-30T02:21:24;13.46;118.99
75217;HTU21D;63800;51.972;5.682;2023-08-30T02:23:52;13.43;118.99
75217;HTU21D;63800;51.972;5.682;2023-08-30T02:26:20;13.37;118.99
75217;HTU21D;63800;51.972;5.682;2023-08-30T02:28:46;13.39;118.99
75217;HTU21D;63800;51.972;5.682;2023-08-30T02:31:12;13.38;118.99
75217;HTU21D;63800;51.972;5.682;2023-08-30T02:33:37;13.33;118.99
75217;HTU21D;63800;51.972;5.682;2023-08-30T02:36:03;13.38;118.99
75217;HTU21D;63800;51.972;5.682;2023-08-30T02:38:29;13.43;118.99
75217;HTU21D;63800;51.972;5.682;2023-08-30T02:40:54;13.44;118.99
75217;HTU21D;63800;51.972;5.682;2023-08-30T02:43:20;13.52;118.99
75217;HTU21D;63800;51.972;5.682;2023-08-30T02:45:45;13.17;118.99
75217;HTU21D;63800;51.972;5.682;2023-08-30T02:48:10;13.45;118.99
75217;HTU21D;63800;51.972;5.682;2023-08-30T02:50:36;13.50;118.99
75217;HTU21D;63800;51.972;5.682;2023-08-30T02:53:01;13.41;118.99
75217;HTU21D;63800;51.972;5.682;2023-08-30T02:55:27;13.30;118.99
75217;HTU21D;63800;51.972;5.682;2023-08-30T02:57:52;13.37;118.99
75217;HTU21D;63800;51.972;5.682;2023-08-30T03:00:18;13.51;118.99
75217;HTU21D;63800;51.972;5.682;2023-08-30T03:02:43;13.52;118.99
75217;HTU21D;63800;51.972;5.682;2023-08-30T03:05:09;13.41;118.99
75217;HTU21D;63800;51.972;5.682;2023-08-30T03:07:34;13.36;118.99
75217;HTU21D;63800;51.972;5.682;2023-08-30T03:10:00;13.49;118.99
75217;HTU21D;63800;51.972;5.682;2023-08-30T03:12:25;13.50;118.99
75217;HTU21D;63800;51.972;5.682;2023-08-30T03:14:51;13.56;118.99
75217;HTU21D;63800;51.972;5.682;2023-08-30T03:17:16;13.37;118.99
75217;HTU21D;63800;51.972;5.682;2023-08-30T03:19:42;13.63;118.99
75217;HTU21D;63800;51.972;5.682;2023-08-30T03:22:07;13.53;118.99
75217;HTU21D;63800;51.972;5.682;2023-08-30T03:24:33;13.34;118.99
75217;HTU21D;63800;51.972;5.682;2023-08-30T03:26:58;13.35;118.99
75217;HTU21D;63800;51.972;5.682;2023-08-30T03:29:25;13.31;118.99
75217;HTU21D;63800;51.972;5.682;2023-08-30T03:31:50;13.21;118.99
75217;HTU21D;63800;51.972;5.682;2023-08-30T03:34:15;13.01;118.99
75217;HTU21D;63800;51.972;5.682;2023-08-30T03:36:41;13.12;118.99
75217;HTU21D;63800;51.972;5.682;2023-08-30T03:39:09;12.97;118.99
75217;HTU21D;63800;51.972;5.682;2023-08-30T03:41:34;13.18;118.99
75217;HTU21D;63800;51.972;5.682;2023-08-30T03:44:00;13.17;118.99
75217;HTU21D;63800;51.972;5.682;2023-08-30T03:46:25;13.12;118.99
75217;HTU21D;63800;51.972;5.682;2023-08-30T03:48:51;13.01;118.99
75217;HTU21D;63800;51.972;5.682;2023-08-30T03:51:17;12.99;118.99
75217;HTU21D;63800;51.972;5.682;2023-08-30T03:53:42;12.73;118.99
75217;HTU21D;63800;51.972;5.682;2023-08-30T03:56:08;12.70;118.99
75217;HTU21D;63800;51.972;5.682;2023-08-30T03:58:34;12.88;118.99
75217;HTU21D;63800;51.972;5.682;2023-08-30T04:00:59;12.75;118.99
75217;HTU21D;63800;51.972;5.682;2023-08-30T04:03:24;12.70;118.99
75217;HTU21D;63800;51.972;5.682;2023-08-30T04:05:56;12.65;118.99
75217;HTU21D;63800;51.972;5.682;2023-08-30T04:08:24;12.61;118.99
75217;HTU21D;63800;51.972;5.682;2023-08-30T04:10:52;12.51;118.99
75217;HTU21D;63800;51.972;5.682;2023-08-30T04:13:18;12.70;118.99
75217;HTU21D;63800;51.972;5.682;2023-08-30T04:15:43;12.60;118.99
75217;HTU21D;63800;51.972;5.682;2023-08-30T04:18:08;12.55;118.99
75217;HTU21D;63800;51.972;5.682;2023-08-30T04:20:34;12.33;118.99
75217;HTU21D;63800;51.972;5.682;2023-08-30T04:23:01;12.28;118.99
75217;HTU21D;63800;51.972;5.682;2023-08-30T04:25:30;12.25;118.99
75217;HTU21D;63800;51.972;5.682;2023-08-30T04:27:55;12.13;118.99
75217;HTU21D;63800;51.972;5.682;2023-08-30T04:30:21;12.30;118.99
75217;HTU21D;63800;51.972;5.682;2023-08-30T04:32:46;12.36;118.99
75217;HTU21D;63800;51.972;5.682;2023-08-30T04:35:12;12.30;118.99
75217;HTU21D;63800;51.972;5.682;2023-08-30T04:37:37;12.46;118.99
75217;HTU21D;63800;51.972;5.682;2023-08-30T04:40:07;12.43;118.99
75217;HTU21D;63800;51.972;5.682;2023-08-30T04:42:36;12.49;118.99
75217;HTU21D;63800;51.972;5.682;2023-08-30T04:45:02;12.43;118.99
75217;HTU21D;63800;51.972;5.682;2023-08-30T04:47:29;12.44;118.99
75217;HTU21D;63800;51.972;5.682;2023-08-30T04:49:55;12.53;118.99
75217;HTU21D;63800;51.972;5.682;2023-08-30T04:52:21;12.40;118.99
75217;HTU21D;63800;51.972;5.682;2023-08-30T04:54:46;12.36;118.99
75217;HTU21D;63800;51.972;5.682;2023-08-30T04:57:14;12.36;118.99
75217;HTU21D;63800;51.972;5.682;2023-08-30T04:59:44;12.20;118.99
75217;HTU21D;63800;51.972;5.682;2023-08-30T05:02:10;12.26;118.99
75217;HTU21D;63800;51.972;5.682;2023-08-30T05:04:36;12.29;118.99
75217;HTU21D;63800;51.972;5.682;2023-08-30T05:07:02;12.20;118.99
75217;HTU21D;63800;51.972;5.682;2023-08-30T05:09:28;12.14;118.99
75217;HTU21D;63800;51.972;5.682;2023-08-30T05:11:54;12.37;118.99
75217;HTU21D;63800;51.972;5.682;2023-08-30T05:14:20;12.20;118.99
75217;HTU21D;63800;51.972;5.682;2023-08-30T05:16:46;12.19;118.99
75217;HTU21D;63800;51.972;5.682;2023-08-30T05:19:11;12.22;118.99
75217;HTU21D;63800;51.972;5.682;2023-08-30T05:21:36;12.26;118.99
75217;HTU21D;63800;51.972;5.682;2023-08-30T05:24:02;12.21;118.99
75217;HTU21D;63800;51.972;5.682;2023-08-30T05:26:28;12.14;118.99
75217;HTU21D;63800;51.972;5.682;2023-08-30T05:28:53;12.25;118.99
75217;HTU21D;63800;51.972;5.682;2023-08-30T05:31:19;12.34;118.99
75217;HTU21D;63800;51.972;5.682;2023-08-30T05:33:44;12.35;118.99
75217;HTU21D;63800;51.972;5.682;2023-08-30T05:36:10;12.31;118.99
75217;HTU21D;63800;51.972;5.682;2023-08-30T05:38:35;12.48;118.99
75217;HTU21D;63800;51.972;5.682;2023-08-30T05:41:00;12.49;118.99
75217;HTU21D;63800;51.972;5.682;2023-08-30T05:43:26;12.53;118.99
75217;HTU21D;63800;51.972;5.682;2023-08-30T05:45:51;12.78;118.99
75217;HTU21D;63800;51.972;5.682;2023-08-30T05:48:17;12.78;118.99
75217;HTU21D;63800;51.972;5.682;2023-08-30T05:50:42;12.74;118.99
75217;HTU21D;63800;51.972;5.682;2023-08-30T05:53:08;12.81;118.99
75217;HTU21D;63800;51.972;5.682;2023-08-30T05:55:33;12.78;118.99
75217;HTU21D;63800;51.972;5.682;2023-08-30T05:57:59;12.93;118.99
75217;HTU21D;63800;51.972;5.682;2023-08-30T06:00:24;13.03;118.99
75217;HTU21D;63800;51.972;5.682;2023-08-30T06:02:51;12.93;118.99
75217;HTU21D;63800;51.972;5.682;2023-08-30T06:05:17;12.82;118.99
75217;HTU21D;63800;51.972;5.682;2023-08-30T06:07:42;12.92;118.99
75217;HTU21D;63800;51.972;5.682;2023-08-30T06:10:08;12.79;118.99
75217;HTU21D;63800;51.972;5.682;2023-08-30T06:12:33;13.05;118.99
75217;HTU21D;63800;51.972;5.682;2023-08-30T06:14:59;12.99;118.99
75217;HTU21D;63800;51.972;5.682;2023-08-30T06:17:24;12.99;118.99
75217;HTU21D;63800;51.972;5.682;2023-08-30T06:19:49;13.01;118.99
75217;HTU21D;63800;51.972;5.682;2023-08-30T06:22:15;13.33;118.99
75217;HTU21D;63800;51.972;5.682;2023-08-30T06:24:40;13.11;118.99
75217;HTU21D;63800;51.972;5.682;2023-08-30T06:27:06;13.17;118.99
75217;HTU21D;63800;51.972;5.682;2023-08-30T06:29:31;13.22;118.99
75217;HTU21D;63800;51.972;5.682;2023-08-30T06:31:58;13.26;118.99
75217;HTU21D;63800;51.972;5.682;2023-08-30T06:34:24;13.38;118.99
75217;HTU21D;63800;51.972;5.682;2023-08-30T06:36:49;13.29;118.99
75217;HTU21D;63800;51.972;5.682;2023-08-30T06:39:15;13.60;118.99
75217;HTU21D;63800;51.972;5.682;2023-08-30T06:41:40;13.65;118.99
75217;HTU21D;63800;51.972;5.682;2023-08-30T06:44:06;13.55;118.99
75217;HTU21D;63800;51.972;5.682;2023-08-30T06:46:31;13.67;118.99
75217;HTU21D;63800;51.972;5.682;2023-08-30T06:48:57;13.41;118.99
75217;HTU21D;63800;51.972;5.682;2023-08-30T06:51:22;13.38;118.99
75217;HTU21D;63800;51.972;5.682;2023-08-30T06:53:48;13.48;118.99
75217;HTU21D;63800;51.972;5.682;2023-08-30T06:56:13;13.33;118.99
75217;HTU21D;63800;51.972;5.682;2023-08-30T06:58:39;13.26;118.99
75217;HTU21D;63800;51.972;5.682;2023-08-30T07:01:05;13.12;118.99
75217;HTU21D;63800;51.972;5.682;2023-08-30T07:03:31;13.24;118.99
75217;HTU21D;63800;51.972;5.682;2023-08-30T07:05:56;13.36;118.99
75217;HTU21D;63800;51.972;5.682;2023-08-30T07:08:21;13.51;118.99
75217;HTU21D;63800;51.972;5.682;2023-08-30T07:10:47;13.40;118.99
75217;HTU21D;63800;51.972;5.682;2023-08-30T07:13:12;13.48;118.99
75217;HTU21D;63800;51.972;5.682;2023-08-30T07:15:41;13.31;118.99
75217;HTU21D;63800;51.972;5.682;2023-08-30T07:18:08;13.32;118.99
75217;HTU21D;63800;51.972;5.682;2023-08-30T07:20:33;13.47;118.99
75217;HTU21D;63800;51.972;5.682;2023-08-30T07:23:00;13.14;118.99
75217;HTU21D;63800;51.972;5.682;2023-08-30T07:25:26;13.31;118.99
75217;HTU21D;63800;51.972;5.682;2023-08-30T07:27:51;13.26;118.99
75217;HTU21D;63800;51.972;5.682;2023-08-30T07:30:19;13.05;118.99
75217;HTU21D;63800;51.972;5.682;2023-08-30T07:32:49;13.17;118.99
75217;HTU21D;63800;51.972;5.682;2023-08-30T07:35:15;13.11;118.99
75217;HTU21D;63800;51.972;5.682;2023-08-30T07:37:40;13.01;118.99
75217;HTU21D;63800;51.972;5.682;2023-08-30T07:40:06;13.14;118.99
75217;HTU21D;63800;51.972;5.682;2023-08-30T07:42:32;12.95;118.99
75217;HTU21D;63800;51.972;5.682;2023-08-30T07:44:58;13.09;118.99
75217;HTU21D;63800;51.972;5.682;2023-08-30T07:47:23;12.82;118.99
75217;HTU21D;63800;51.972;5.682;2023-08-30T07:49:48;12.96;118.99
75217;HTU21D;63800;51.972;5.682;2023-08-30T07:52:14;13.08;118.99
75217;HTU21D;63800;51.972;5.682;2023-08-30T07:54:40;13.27;118.99
75217;HTU21D;63800;51.972;5.682;2023-08-30T07:57:06;13.19;118.99
75217;HTU21D;63800;51.972;5.682;2023-08-30T07:59:33;13.03;118.99
75217;HTU21D;63800;51.972;5.682;2023-08-30T08:01:59;13.17;118.99
75217;HTU21D;63800;51.972;5.682;2023-08-30T08:04:25;13.09;118.99
75217;HTU21D;63800;51.972;5.682;2023-08-30T08:06:50;13.12;118.99
75217;HTU21D;63800;51.972;5.682;2023-08-30T08:09:16;13.06;118.99
75217;HTU21D;63800;51.972;5.682;2023-08-30T08:11:41;13.06;118.99
75217;HTU21D;63800;51.972;5.682;2023-08-30T08:14:09;13.21;118.99
75217;HTU21D;63800;51.972;5.682;2023-08-30T08:16:35;13.24;118.99
75217;HTU21D;63800;51.972;5.682;2023-08-30T08:19:01;13.35;118.99
75217;HTU21D;63800;51.972;5.682;2023-08-30T08:21:26;13.60;118.99
75217;HTU21D;63800;51.972;5.682;2023-08-30T08:23:52;13.48;118.99
75217;HTU21D;63800;51.972;5.682;2023-08-30T08:26:17;13.50;118.99
75217;HTU21D;63800;51.972;5.682;2023-08-30T08:28:44;13.73;118.99
75217;HTU21D;63800;51.972;5.682;2023-08-30T08:31:09;13.53;118.99
75217;HTU21D;63800;51.972;5.682;2023-08-30T08:33:35;13.68;118.99
75217;HTU21D;63800;51.972;5.682;2023-08-30T08:36:01;13.98;118.99
75217;HTU21D;63800;51.972;5.682;2023-08-30T08:38:26;13.82;118.99
75217;HTU21D;63800;51.972;5.682;2023-08-30T08:41:01;13.37;118.99
75217;HTU21D;63800;51.972;5.682;2023-08-30T08:43:28;13.65;118.99
75217;HTU21D;63800;51.972;5.682;2023-08-30T08:46:01;13.84;118.99
75217;HTU21D;63800;51.972;5.682;2023-08-30T08:48:28;13.70;118.99
75217;HTU21D;63800;51.972;5.682;2023-08-30T08:50:55;13.85;118.99
75217;HTU21D;63800;51.972;5.682;2023-08-30T08:53:22;13.76;118.99
75217;HTU21D;63800;51.972;5.682;2023-08-30T08:55:48;13.74;118.99
75217;HTU21D;63800;51.972;5.682;2023-08-30T08:58:14;13.67;118.99
75217;HTU21D;63800;51.972;5.682;2023-08-30T09:00:43;13.73;118.99
75217;HTU21D;63800;51.972;5.682;2023-08-30T09:03:10;13.29;118.99
75217;HTU21D;63800;51.972;5.682;2023-08-30T09:05:40;13.49;118.99
75217;HTU21D;63800;51.972;5.682;2023-08-30T09:08:06;13.39;118.99
75217;HTU21D;63800;51.972;5.682;2023-08-30T09:10:32;13.60;118.99
75217;HTU21D;63800;51.972;5.682;2023-08-30T09:12:59;13.37;118.99
75217;HTU21D;63800;51.972;5.682;2023-08-30T09:15:34;13.43;118.99
75217;HTU21D;63800;51.972;5.682;2023-08-30T09:18:02;13.50;118.99
75217;HTU21D;63800;51.972;5.682;2023-08-30T09:20:28;13.45;118.99
75217;HTU21D;63800;51.972;5.682;2023-08-30T09:22:53;13.35;118.99
75217;HTU21D;63800;51.972;5.682;2023-08-30T09:25:26;13.62;118.99
75217;HTU21D;63800;51.972;5.682;2023-08-30T09:27:59;13.63;118.99
75217;HTU21D;63800;51.972;5.682;2023-08-30T09:30:24;13.68;118.99
75217;HTU21D;63800;51.972;5.682;2023-08-30T09:32:50;13.67;118.99
75217;HTU21D;63800;51.972;5.682;2023-08-30T09:35:16;13.78;118.99
75217;HTU21D;63800;51.972;5.682;2023-08-30T09:37:44;13.77;118.99
75217;HTU21D;63800;51.972;5.682;2023-08-30T09:40:10;13.78;118.99
75217;HTU21D;63800;51.972;5.682;2023-08-30T09:42:40;13.74;118.99
75217;HTU21D;63800;51.972;5.682;2023-08-30T09:45:22;13.96;118.99
75217;HTU21D;63800;51.972;5.682;2023-08-30T09:47:49;14.10;118.99
75217;HTU21D;63800;51.972;5.682;2023-08-30T09:50:19;13.94;118.99
75217;HTU21D;63800;51.972;5.682;2023-08-30T09:52:46;14.18;118.99
75217;HTU21D;63800;51.972;5.682;2023-08-30T09:55:14;14.37;118.99
75217;HTU21D;63800;51.972;5.682;2023-08-30T09:57:42;14.43;118.99
75217;HTU21D;63800;51.972;5.682;2023-08-30T10:00:09;14.57;118.99
75217;HTU21D;63800;51.972;5.682;2023-08-30T10:02:38;14.48;118.99
75217;HTU21D;63800;51.972;5.682;2023-08-30T10:05:08;14.69;118.99
75217;HTU21D;63800;51.972;5.682;2023-08-30T10:07:35;14.68;118.99
75217;HTU21D;63800;51.972;5.682;2023-08-30T10:10:02;14.78;118.99
75217;HTU21D;63800;51.972;5.682;2023-08-30T10:12:33;14.73;118.99
75217;HTU21D;63800;51.972;5.682;2023-08-30T10:14:59;14.93;118.99
75217;HTU21D;63800;51.972;5.682;2023-08-30T10:17:28;15.03;118.99
75217;HTU21D;63800;51.972;5.682;2023-08-30T10:19:55;15.21;118.99
75217;HTU21D;63800;51.972;5.682;2023-08-30T10:22:22;15.10;118.99
75217;HTU21D;63800;51.972;5.682;2023-08-30T10:24:53;15.23;118.99
75217;HTU21D;63800;51.972;5.682;2023-08-30T10:27:19;15.31;118.99
75217;HTU21D;63800;51.972;5.682;2023-08-30T10:29:47;15.29;118.99
75217;HTU21D;63800;51.972;5.682;2023-08-30T10:32:21;15.51;118.99
75217;HTU21D;63800;51.972;5.682;2023-08-30T10:34:49;16.00;118.99
75217;HTU21D;63800;51.972;5.682;2023-08-30T10:37:15;16.37;118.99
75217;HTU21D;63800;51.972;5.682;2023-08-30T10:39:41;16.19;118.99
75217;HTU21D;63800;51.972;5.682;2023-08-30T10:42:14;16.48;118.99
75217;HTU21D;63800;51.972;5.682;2023-08-30T10:44:51;16.44;118.99
75217;HTU21D;63800;51.972;5.682;2023-08-30T10:47:22;16.37;118.99
75217;HTU21D;63800;51.972;5.682;2023-08-30T10:49:47;16.65;118.99
75217;HTU21D;63800;51.972;5.682;2023-08-30T10:52:13;16.46;118.99
75217;HTU21D;63800;51.972;5.682;2023-08-30T10:54:39;16.52;118.99
75217;HTU21D;63800;51.972;5.682;2023-08-30T10:57:04;16.36;118.99
75217;HTU21D;63800;51.972;5.682;2023-08-30T10:59:30;16.41;118.99
75217;HTU21D;63800;51.972;5.682;2023-08-30T11:01:55;16.80;118.99
75217;HTU21D;63800;51.972;5.682;2023-08-30T11:04:21;17.18;118.99
75217;HTU21D;63800;51.972;5.682;2023-08-30T11:06:48;17.29;118.99
75217;HTU21D;63800;51.972;5.682;2023-08-30T11:09:21;16.98;118.99
75217;HTU21D;63800;51.972;5.682;2023-08-30T11:11:48;16.76;118.99
75217;HTU21D;63800;51.972;5.682;2023-08-30T11:14:15;16.50;118.99
75217;HTU21D;63800;51.972;5.682;2023-08-30T11:16:41;16.40;118.99
75217;HTU21D;63800;51.972;5.682;2023-08-30T11:19:08;16.52;118.99
75217;HTU21D;63800;51.972;5.682;2023-08-30T11:21:36;16.72;118.99
75217;HTU21D;63800;51.972;5.682;2023-08-30T11:24:04;16.75;118.99
75217;HTU21D;63800;51.972;5.682;2023-08-30T11:26:30;17.20;118.99
75217;HTU21D;63800;51.972;5.682;2023-08-30T11:28:55;17.77;118.99
75217;HTU21D;63800;51.972;5.682;2023-08-30T11:31:24;18.69;118.99
75217;HTU21D;63800;51.972;5.682;2023-08-30T11:33:53;18.30;118.99
75217;HTU21D;63800;51.972;5.682;2023-08-30T11:36:21;18.10;118.99
75217;HTU21D;63800;51.972;5.682;2023-08-30T11:38:50;17.89;118.99
75217;HTU21D;63800;51.972;5.682;2023-08-30T11:41:16;17.89;118.99
75217;HTU21D;63800;51.972;5.682;2023-08-30T11:43:42;19.05;118.99
75217;HTU21D;63800;51.972;5.682;2023-08-30T11:46:08;19.33;118.99
75217;HTU21D;63800;51.972;5.682;2023-08-30T11:48:34;19.51;118.99
75217;HTU21D;63800;51.972;5.682;2023-08-30T11:51:01;19.20;118.99
75217;HTU21D;63800;51.972;5.682;2023-08-30T11:53:26;19.21;118.99
75217;HTU21D;63800;51.972;5.682;2023-08-30T11:55:53;19.43;118.99
75217;HTU21D;63800;51.972;5.682;2023-08-30T11:58:18;18.49;118.99
75217;HTU21D;63800;51.972;5.682;2023-08-30T12:00:45;18.11;118.99
75217;HTU21D;63800;51.972;5.682;2023-08-30T12:03:13;17.68;118.99
75217;HTU21D;63800;51.972;5.682;2023-08-30T12:05:47;17.26;118.99
75217;HTU21D;63800;51.972;5.682;2023-08-30T12:08:25;17.51;118.99
75217;HTU21D;63800;51.972;5.682;2023-08-30T12:10:52;17.41;118.99
75217;HTU21D;63800;51.972;5.682;2023-08-30T12:13:24;17.37;118.99
75217;HTU21D;63800;51.972;5.682;2023-08-30T12:15:52;17.40;118.99
75217;HTU21D;63800;51.972;5.682;2023-08-30T12:18:26;17.37;118.99
75217;HTU21D;63800;51.972;5.682;2023-08-30T12:20:59;17.75;118.99
75217;HTU21D;63800;51.972;5.682;2023-08-30T12:23:32;17.97;118.99
75217;HTU21D;63800;51.972;5.682;2023-08-30T12:28:30;17.90;118.99
75217;HTU21D;63800;51.972;5.682;2023-08-30T12:30:56;18.13;118.99
75217;HTU21D;63800;51.972;5.682;2023-08-30T12:33:22;17.76;118.99
75217;HTU21D;63800;51.972;5.682;2023-08-30T12:35:48;17.88;118.99
75217;HTU21D;63800;51.972;5.682;2023-08-30T12:38:13;17.81;118.99
75217;HTU21D;63800;51.972;5.682;2023-08-30T12:40:52;18.24;118.99
75217;HTU21D;63800;51.972;5.682;2023-08-30T12:43:18;18.14;118.99
75217;HTU21D;63800;51.972;5.682;2023-08-30T12:45:48;18.54;118.99
75217;HTU21D;63800;51.972;5.682;2023-08-30T12:48:15;19.39;118.99
75217;HTU21D;63800;51.972;5.682;2023-08-30T12:50:42;19.30;118.99
75217;HTU21D;63800;51.972;5.682;2023-08-30T12:53:08;19.06;118.99
75217;HTU21D;63800;51.972;5.682;2023-08-30T12:55:34;19.40;118.99
75217;HTU21D;63800;51.972;5.682;2023-08-30T12:58:00;20.13;118.99
75217;HTU21D;63800;51.972;5.682;2023-08-30T13:00:26;20.89;118.99
75217;HTU21D;63800;51.972;5.682;2023-08-30T13:02:52;21.25;118.99
75217;HTU21D;63800;51.972;5.682;2023-08-30T13:05:17;21.51;118.99
75217;HTU21D;63800;51.972;5.682;2023-08-30T13:07:43;21.20;118.99
75217;HTU21D;63800;51.972;5.682;2023-08-30T13:10:09;21.22;118.99
75217;HTU21D;63800;51.972;5.682;2023-08-30T13:12:35;21.49;118.99
75217;HTU21D;63800;51.972;5.682;2023-08-30T13:15:01;20.29;118.99
75217;HTU21D;63800;51.972;5.682;2023-08-30T13:17:26;21.00;118.99
75217;HTU21D;63800;51.972;5.682;2023-08-30T13:19:52;20.77;118.99
75217;HTU21D;63800;51.972;5.682;2023-08-30T13:22:17;20.36;118.99
75217;HTU21D;63800;51.972;5.682;2023-08-30T13:24:44;19.82;118.99
75217;HTU21D;63800;51.972;5.682;2023-08-30T13:27:09;20.12;118.99
75217;HTU21D;63800;51.972;5.682;2023-08-30T13:29:35;20.39;118.99
75217;HTU21D;63800;51.972;5.682;2023-08-30T13:32:01;20.16;118.99
75217;HTU21D;63800;51.972;5.682;2023-08-30T13:34:26;19.87;118.99
75217;HTU21D;63800;51.972;5.682;2023-08-30T13:36:52;20.83;118.99
75217;HTU21D;63800;51.972;5.682;2023-08-30T13:39:18;21.19;118.99
75217;HTU21D;63800;51.972;5.682;2023-08-30T13:41:46;20.39;118.99
75217;HTU21D;63800;51.972;5.682;2023-08-30T13:44:11;20.45;118.99
75217;HTU21D;63800;51.972;5.682;2023-08-30T13:46:36;21.43;118.99
75217;HTU21D;63800;51.972;5.682;2023-08-30T13:49:02;21.45;118.99
75217;HTU21D;63800;51.972;5.682;2023-08-30T13:51:27;20.62;118.99
75217;HTU21D;63800;51.972;5.682;2023-08-30T13:53:53;20.03;118.99
75217;HTU21D;63800;51.972;5.682;2023-08-30T13:56:19;19.80;118.99
75217;HTU21D;63800;51.972;5.682;2023-08-30T13:58:45;20.03;118.99
75217;HTU21D;63800;51.972;5.682;2023-08-30T14:01:11;19.88;118.99
75217;HTU21D;63800;51.972;5.682;2023-08-30T14:03:37;19.98;118.99
75217;HTU21D;63800;51.972;5.682;2023-08-30T14:06:02;20.98;118.99
75217;HTU21D;63800;51.972;5.682;2023-08-30T14:08:28;20.76;118.99
75217;HTU21D;63800;51.972;5.682;2023-08-30T14:10:54;20.77;118.99
75217;HTU21D;63800;51.972;5.682;2023-08-30T14:13:20;20.73;118.99
75217;HTU21D;63800;51.972;5.682;2023-08-30T14:15:46;21.08;118.99
75217;HTU21D;63800;51.972;5.682;2023-08-30T14:18:12;21.31;118.99
75217;HTU21D;63800;51.972;5.682;2023-08-30T14:20:37;21.38;118.99
75217;HTU21D;63800;51.972;5.682;2023-08-30T14:23:03;21.17;118.99
75217;HTU21D;63800;51.972;5.682;2023-08-30T14:25:29;21.13;118.99
75217;HTU21D;63800;51.972;5.682;2023-08-30T14:27:54;21.04;118.99
75217;HTU21D;63800;51.972;5.682;2023-08-30T14:30:20;21.08;118.99
75217;HTU21D;63800;51.972;5.682;2023-08-30T14:32:46;21.70;118.99
75217;HTU21D;63800;51.972;5.682;2023-08-30T14:35:12;20.74;118.99
75217;HTU21D;63800;51.972;5.682;2023-08-30T14:37:37;20.63;118.99
75217;HTU21D;63800;51.972;5.682;2023-08-30T14:40:05;19.70;118.99
75217;HTU21D;63800;51.972;5.682;2023-08-30T14:42:31;19.72;118.99
75217;HTU21D;63800;51.972;5.682;2023-08-30T14:44:57;19.29;118.99
75217;HTU21D;63800;51.972;5.682;2023-08-30T14:47:23;19.56;118.99
75217;HTU21D;63800;51.972;5.682;2023-08-30T14:49:48;20.12;118.99
75217;HTU21D;63800;51.972;5.682;2023-08-30T14:52:15;19.65;118.99
75217;HTU21D;63800;51.972;5.682;2023-08-30T14:54:40;19.39;118.99
75217;HTU21D;63800;51.972;5.682;2023-08-30T14:57:06;19.81;118.99
75217;HTU21D;63800;51.972;5.682;2023-08-30T14:59:32;19.46;118.99
75217;HTU21D;63800;51.972;5.682;2023-08-30T15:01:57;18.96;118.99
75217;HTU21D;63800;51.972;5.682;2023-08-30T15:04:23;18.70;118.99
75217;HTU21D;63800;51.972;5.682;2023-08-30T15:06:48;18.55;118.99
75217;HTU21D;63800;51.972;5.682;2023-08-30T15:09:14;18.08;118.99